This is the latest recevied weather packets stored in our database for station/object KB1ZFK. If no packets are shown the sender has not sent any weather packets the latest 10 day(s).
| Time | Temp. | Humidity | Pressure | Rain* | Wind** | Luminosity | Snow |
|---|---|---|---|---|---|---|---|
| 1777384765 | 13.33° C | 51% | 1022.7 hPa | 0 mm | - | 594 W/m² | - |
| 1777384460 | 13.33° C | 52% | 1022.5 hPa | 0 mm | - | 582 W/m² | - |
| 1777384155 | 12.78° C | 52% | 1022.6 hPa | 0 mm | - | 564 W/m² | - |
| 1777383852 | 12.78° C | 53% | 1022.4 hPa | 0 mm | - | 527 W/m² | - |
| 1777383549 | 12.78° C | 52% | 1022.6 hPa | 0 mm | - | 532 W/m² | - |
| 1777383245 | 12.22° C | 53% | 1022.8 hPa | 0 mm | - | 530 W/m² | - |
| 1777382941 | 13.33° C | 52% | 1022.7 hPa | 0 mm | - | 511 W/m² | - |
| 1777382636 | 12.78° C | 53% | 1022.8 hPa | 0 mm | - | 494 W/m² | - |
| 1777382332 | 11.67° C | 54% | 1023.1 hPa | 0 mm | - | 470 W/m² | - |
| 1777382029 | 12.22° C | 54% | 1023.1 hPa | 0 mm | - | 446 W/m² | - |
| 1777381725 | 12.22° C | 56% | 1023.1 hPa | 0 mm | - | 416 W/m² | - |
| 1777381419 | 11.67° C | 57% | 1023.2 hPa | 0 mm | - | 401 W/m² | - |
| 1777381116 | 11.67° C | 55% | 1022.6 hPa | 0 mm | - | 380 W/m² | - |
| 1777380813 | 10.56° C | 60% | 1023.2 hPa | 0 mm | - | 370 W/m² | - |
| 1777380510 | 10.56° C | 62% | 1023.2 hPa | 0 mm | - | 351 W/m² | - |
| 1777380207 | 10.56° C | 62% | 1023.2 hPa | 0 mm | - | 338 W/m² | - |
| 1777379902 | 10.56° C | 64% | 1023.3 hPa | 0 mm | - | 325 W/m² | - |
| 1777379598 | 10.56° C | 65% | 1023.1 hPa | 0 mm | - | 309 W/m² | - |
| 1777379295 | 10.56° C | 68% | 1023.3 hPa | 0 mm | - | 293 W/m² | - |
| 1777378988 | 9.44° C | 70% | 1023.3 hPa | 0 mm | - | 272 W/m² | - |
| 1777378685 | 8.89° C | 72% | 1023.3 hPa | 0 mm | - | 259 W/m² | - |
| 1777378381 | 9.44° C | 72% | 1023.3 hPa | 0 mm | - | 245 W/m² | - |
| 1777378076 | 7.78° C | 76% | 1023.1 hPa | 0 mm | - | 223 W/m² | - |
| 1777377770 | 7.78° C | 78% | 1023.3 hPa | 0 mm | - | 83 W/m² | - |
| 1777377464 | 7.22° C | 79% | 1023.3 hPa | 0 mm | - | 69 W/m² | - |
* Rain latest hour (hover to see other rain measurements)
** Current wind speed in m/s (hover to see current wind gust speed)